Cornish, Utah
Current Conditions -  °F | °C
As of 1:51 AM on Thursday 27 Nov 2014 (Local Time) from KLGU Reporting Station
Clear Clear  
Wind Chill: 29°   Ceiling: Unl
Heat Index: 33°   Visibility: 10mi
Dew Point: 27°   Wind: 5mph
Humidity: 78%   Direction: 60°ENE
Pressure: 30.31"   Gusts: NA
Location:  41.98°N, 111.95°W
Report Text: KLGU 270851Z AUTO 06004KT 10SM CLR 01/M03 A3031 RMK AO2 SLP256 T00061028 58007
Loading
Personal Weather Stations






























Interactive Weather Map New forecast layout! Learn more

10-Day Weather Forecast

Advertisements
Track Severe Weather on mobile